createdAt,value
2018-06-16T00:02:12.180Z,57.00
2018-06-16T00:04:40.436Z,57.10
2018-06-16T00:07:08.717Z,57.20
2018-06-16T00:09:37.149Z,57.30
2018-06-16T00:12:05.414Z,57.30
2018-06-16T00:14:33.648Z,57.30
2018-06-16T00:17:01.900Z,57.30
2018-06-16T00:19:30.180Z,57.40
2018-06-16T00:21:58.410Z,57.50
2018-06-16T00:24:26.719Z,57.60
2018-06-16T00:26:54.903Z,57.70
2018-06-16T00:29:23.156Z,57.90
2018-06-16T00:31:51.417Z,58.10
2018-06-16T00:34:19.666Z,58.30
2018-06-16T00:36:47.924Z,58.40
2018-06-16T00:39:16.272Z,58.60
2018-06-16T00:41:44.549Z,58.70
2018-06-16T00:44:12.820Z,58.70
2018-06-16T00:46:41.059Z,58.80
2018-06-16T00:49:09.565Z,58.80
2018-06-16T00:51:37.829Z,58.70
2018-06-16T00:54:06.093Z,58.60
2018-06-16T00:56:34.308Z,58.60
2018-06-16T00:59:02.575Z,58.60
2018-06-16T01:01:30.813Z,58.80
2018-06-16T01:03:59.091Z,58.90
2018-06-16T01:06:27.344Z,59.00
2018-06-16T01:08:55.612Z,59.10
2018-06-16T01:11:23.909Z,59.10
2018-06-16T01:13:52.217Z,59.30
2018-06-16T01:16:20.580Z,59.40
2018-06-16T01:18:48.814Z,60.30
2018-06-16T01:21:17.048Z,59.90
2018-06-16T01:23:45.315Z,60.00
2018-06-16T01:26:13.586Z,60.30
2018-06-16T01:28:41.837Z,60.40
2018-06-16T01:31:10.139Z,60.50
2018-06-16T01:33:38.403Z,60.70
2018-06-16T01:36:06.664Z,60.80
2018-06-16T01:38:34.898Z,60.90
2018-06-16T01:41:03.152Z,61.00
2018-06-16T01:43:31.400Z,61.10
2018-06-16T01:45:59.664Z,61.30
2018-06-16T01:48:27.912Z,61.50
2018-06-16T01:50:56.203Z,61.80
2018-06-16T01:53:24.416Z,62.10
2018-06-16T01:55:52.698Z,62.50
2018-06-16T01:58:20.964Z,63.10
2018-06-16T02:00:49.237Z,63.20
2018-06-16T02:03:17.515Z,63.50
2018-06-16T02:05:45.775Z,63.60
2018-06-16T02:08:14.045Z,63.90
2018-06-16T02:10:42.304Z,63.90
2018-06-16T02:13:10.572Z,64.00
2018-06-16T02:15:38.865Z,64.00
2018-06-16T02:18:07.140Z,64.00
2018-06-16T02:20:35.388Z,64.20
2018-06-16T02:23:03.633Z,64.10
2018-06-16T02:25:32.084Z,64.20
2018-06-16T02:28:00.313Z,64.10
2018-06-16T02:30:28.768Z,64.00
2018-06-16T02:32:57.011Z,64.00
2018-06-16T02:35:25.306Z,63.90
2018-06-16T02:37:53.571Z,63.80
2018-06-16T02:40:21.804Z,63.60
2018-06-16T02:42:50.248Z,63.40
2018-06-16T02:45:18.475Z,63.20
2018-06-16T02:47:46.730Z,63.10
2018-06-16T02:50:15.039Z,62.90
2018-06-16T02:52:43.243Z,63.00
2018-06-16T02:55:11.533Z,63.40
2018-06-16T02:57:39.768Z,63.70
2018-06-16T03:00:08.128Z,64.30
2018-06-16T03:02:36.371Z,64.40
2018-06-16T03:05:04.608Z,64.70
2018-06-16T03:07:32.866Z,65.00
2018-06-16T03:10:01.137Z,65.20
2018-06-16T03:12:29.414Z,65.30
2018-06-16T03:14:57.667Z,65.50
2018-06-16T03:17:25.964Z,65.70
2018-06-16T03:19:54.332Z,65.60
2018-06-16T03:22:22.583Z,65.70
2018-06-16T03:24:50.803Z,65.50
2018-06-16T03:27:19.068Z,65.60
2018-06-16T03:29:47.408Z,65.90
2018-06-16T03:32:16.538Z,65.90
2018-06-16T03:34:45.670Z,66.10
2018-06-16T03:37:14.136Z,66.30
2018-06-16T03:39:42.399Z,66.60
2018-06-16T03:42:10.657Z,66.60
2018-06-16T03:44:38.931Z,66.60
2018-06-16T03:47:07.179Z,66.70
2018-06-16T03:49:35.442Z,66.60
2018-06-16T03:52:03.731Z,66.70
2018-06-16T03:54:31.960Z,66.80
2018-06-16T04:01:56.409Z,67.00
2018-06-16T04:04:24.626Z,66.70
2018-06-16T04:06:52.924Z,66.60
2018-06-16T04:09:21.189Z,66.70
2018-06-16T04:11:49.478Z,66.50
2018-06-16T04:16:45.752Z,66.40
2018-06-16T04:19:14.096Z,66.30
2018-06-16T04:21:42.384Z,66.20
2018-06-16T04:26:39.132Z,66.40
2018-06-16T04:29:07.581Z,66.60
2018-06-16T04:31:35.836Z,66.60
2018-06-16T04:34:04.169Z,66.80
2018-06-16T04:36:32.444Z,66.70
2018-06-16T04:39:00.700Z,66.20
2018-06-16T04:41:28.972Z,65.90
2018-06-16T04:43:57.266Z,65.80
2018-06-16T04:46:25.533Z,65.90
2018-06-16T04:48:53.928Z,65.90
2018-06-16T04:51:22.200Z,66.00
2018-06-16T04:53:50.464Z,66.10
2018-06-16T04:56:18.736Z,66.50
2018-06-16T04:58:47.103Z,66.80
2018-06-16T05:01:15.396Z,66.70
2018-06-16T05:03:43.661Z,66.80
2018-06-16T05:06:11.978Z,66.90
2018-06-16T05:08:40.294Z,66.90
2018-06-16T05:11:08.532Z,67.00
2018-06-16T05:13:37.010Z,67.10
2018-06-16T05:16:05.351Z,67.20
2018-06-16T05:18:33.629Z,67.10
2018-06-16T05:21:01.960Z,67.10
2018-06-16T05:23:30.240Z,67.10
2018-06-16T05:25:58.516Z,67.10
2018-06-16T05:28:26.783Z,67.30
2018-06-16T05:30:55.090Z,67.50
2018-06-16T05:33:23.372Z,67.70
2018-06-16T05:35:51.660Z,67.90
2018-06-16T05:38:26.433Z,68.20
2018-06-16T05:40:54.711Z,68.20
2018-06-16T05:43:22.984Z,68.40
2018-06-16T05:45:51.414Z,68.50
2018-06-16T05:48:26.184Z,68.60
2018-06-16T05:50:54.910Z,68.80
2018-06-16T05:53:24.597Z,68.70
2018-06-16T05:55:52.860Z,68.70
2018-06-16T06:00:49.151Z,68.40
2018-06-16T06:03:17.427Z,68.30
2018-06-16T06:05:46.584Z,68.50
2018-06-16T06:10:42.945Z,68.70
2018-06-16T06:13:11.235Z,68.60
2018-06-16T06:15:39.541Z,68.60
2018-06-16T06:18:07.815Z,69.40
2018-06-16T06:20:39.086Z,68.60
2018-06-16T06:23:08.142Z,68.60
2018-06-16T06:25:36.849Z,68.60
2018-06-16T06:28:05.437Z,68.40
2018-06-16T06:30:34.039Z,68.40
2018-06-16T06:33:02.386Z,68.30
2018-06-16T06:35:31.084Z,68.10
2018-06-16T06:37:59.527Z,67.90
2018-06-16T06:40:29.094Z,67.80
2018-06-16T06:42:57.898Z,68.00
2018-06-16T06:45:26.315Z,67.90
2018-06-16T06:47:54.813Z,67.80
2018-06-16T06:50:23.526Z,67.70
2018-06-16T06:52:52.188Z,67.70
2018-06-16T06:55:20.534Z,68.00
2018-06-16T06:57:48.858Z,68.80
2018-06-16T07:00:18.178Z,67.70
2018-06-16T07:02:46.681Z,67.60
2018-06-16T07:05:15.337Z,67.60
2018-06-16T07:07:44.551Z,67.30
2018-06-16T07:10:12.921Z,67.00
2018-06-16T07:12:41.817Z,67.10
2018-06-16T07:15:10.440Z,67.00
2018-06-16T07:17:39.303Z,67.00
2018-06-16T07:20:07.648Z,67.00
2018-06-16T07:22:36.800Z,67.00
2018-06-16T07:25:05.429Z,66.70
2018-06-16T07:27:34.135Z,66.10
2018-06-16T07:30:02.818Z,65.70
2018-06-16T07:32:31.548Z,65.00
2018-06-16T07:35:00.456Z,64.90
2018-06-16T07:37:29.250Z,64.80
2018-06-16T07:39:57.701Z,64.40
2018-06-16T07:42:26.791Z,63.50
2018-06-16T07:44:55.322Z,61.50
2018-06-16T07:47:23.600Z,60.20
2018-06-16T07:49:51.864Z,59.70
2018-06-16T07:52:20.166Z,59.60
2018-06-16T07:54:48.443Z,59.70
2018-06-16T07:57:16.692Z,60.20
2018-06-16T07:59:44.943Z,60.30
2018-06-16T08:02:14.220Z,60.20
2018-06-16T08:07:12.059Z,58.90
2018-06-16T08:09:42.126Z,58.80
2018-06-16T08:17:07.863Z,58.30
2018-06-16T08:19:36.252Z,58.10
2018-06-16T08:22:04.578Z,57.50
2018-06-16T08:24:32.857Z,57.00
2018-06-16T08:27:01.132Z,56.40
2018-06-16T08:29:29.856Z,56.20
2018-06-16T08:31:58.179Z,56.10
2018-06-16T08:34:26.462Z,56.30
2018-06-16T08:36:54.712Z,55.80
2018-06-16T08:39:22.948Z,55.30
2018-06-16T08:41:51.240Z,54.50
2018-06-16T08:44:19.523Z,54.10
2018-06-16T08:46:47.761Z,53.30
2018-06-16T08:49:16.071Z,53.50
2018-06-16T08:51:44.320Z,53.10
2018-06-16T08:54:12.591Z,53.40
2018-06-16T08:56:40.902Z,53.70
2018-06-16T08:59:09.340Z,53.80
2018-06-16T09:01:37.625Z,53.70
2018-06-16T09:04:06.011Z,53.50
2018-06-16T09:06:34.302Z,53.50
2018-06-16T09:09:02.723Z,53.60
2018-06-16T09:11:31.076Z,53.50
2018-06-16T09:13:59.356Z,53.30
2018-06-16T09:16:27.633Z,53.50
2018-06-16T09:18:56.027Z,52.90
2018-06-16T09:21:24.760Z,52.70
2018-06-16T09:23:53.024Z,52.80
2018-06-16T09:26:21.297Z,52.00
2018-06-16T09:28:49.579Z,51.70
2018-06-16T09:31:17.820Z,51.70
2018-06-16T09:33:46.071Z,50.90
2018-06-16T09:36:14.442Z,49.90
2018-06-16T09:38:42.650Z,50.30
2018-06-16T09:41:10.904Z,50.60
2018-06-16T09:43:39.318Z,50.00
2018-06-16T09:46:07.604Z,49.50
2018-06-16T09:48:35.869Z,49.20
2018-06-16T09:51:04.215Z,49.30
2018-06-16T09:53:32.491Z,49.90
2018-06-16T09:56:00.810Z,49.10
2018-06-16T09:58:29.092Z,48.80
2018-06-16T10:00:57.392Z,48.20
2018-06-16T10:03:25.630Z,47.50
2018-06-16T10:05:53.917Z,47.10
2018-06-16T10:08:22.169Z,47.00
2018-06-16T10:10:50.889Z,47.20
2018-06-16T10:13:19.184Z,47.30
2018-06-16T10:15:47.427Z,47.60
2018-06-16T10:18:15.711Z,47.80
2018-06-16T10:20:44.091Z,48.00
2018-06-16T10:23:12.687Z,47.70
2018-06-16T10:25:41.000Z,48.20
2018-06-16T10:28:09.359Z,48.30
2018-06-16T10:30:37.635Z,48.30
2018-06-16T10:33:06.100Z,47.40
2018-06-16T10:35:34.391Z,47.50
2018-06-16T10:38:02.679Z,47.00
2018-06-16T10:40:30.974Z,47.00
2018-06-16T10:42:59.200Z,47.30
2018-06-16T10:45:27.511Z,47.70
2018-06-16T10:47:55.775Z,47.20
2018-06-16T10:50:24.080Z,46.10
2018-06-16T10:52:52.319Z,45.50
2018-06-16T10:55:20.633Z,44.70
2018-06-16T10:57:48.943Z,43.90
2018-06-16T11:00:17.300Z,43.10
2018-06-16T11:02:45.658Z,42.20
2018-06-16T11:05:13.927Z,42.50
2018-06-16T11:07:42.298Z,43.00
2018-06-16T11:10:10.720Z,42.70
2018-06-16T11:12:38.995Z,42.30
2018-06-16T11:15:07.380Z,41.80
2018-06-16T11:17:35.690Z,41.60
2018-06-16T11:20:03.959Z,41.00
2018-06-16T11:22:32.270Z,40.90
2018-06-16T11:25:00.620Z,40.70
2018-06-16T11:27:29.932Z,40.80
2018-06-16T11:29:58.251Z,40.80
2018-06-16T11:32:27.549Z,41.00
2018-06-16T11:34:55.824Z,41.30
2018-06-16T11:39:52.127Z,41.30
2018-06-16T11:42:20.416Z,41.20
2018-06-16T11:44:48.732Z,40.80
2018-06-16T11:47:17.028Z,40.10
2018-06-16T11:49:45.317Z,40.10
2018-06-16T11:52:13.631Z,40.10
2018-06-16T11:54:41.892Z,40.40
2018-06-16T11:57:10.201Z,40.20
2018-06-16T11:59:38.437Z,40.20
2018-06-16T12:02:06.738Z,40.30
2018-06-16T12:04:35.015Z,40.30
2018-06-16T12:07:03.853Z,39.80
2018-06-16T12:09:32.357Z,38.90
2018-06-16T12:12:01.044Z,39.30
2018-06-16T12:14:29.819Z,39.20
2018-06-16T12:16:58.336Z,39.00
2018-06-16T12:19:26.662Z,39.00
2018-06-16T12:21:55.263Z,38.80
2018-06-16T12:24:25.501Z,39.40
2018-06-16T12:26:54.102Z,38.40
2018-06-16T12:29:22.676Z,37.50
2018-06-16T12:31:51.299Z,37.20
2018-06-16T12:34:19.601Z,37.10
2018-06-16T12:36:47.987Z,37.00
2018-06-16T12:39:16.532Z,36.80
2018-06-16T12:41:45.243Z,36.20
2018-06-16T12:44:13.999Z,36.20
2018-06-16T12:46:42.992Z,36.30
2018-06-16T12:49:11.799Z,36.40
2018-06-16T12:51:40.606Z,36.60
2018-06-16T12:56:37.404Z,36.10
2018-06-16T12:59:06.230Z,36.00
2018-06-16T13:01:34.782Z,36.30
2018-06-16T13:04:03.596Z,36.30
2018-06-16T13:06:32.489Z,35.60
2018-06-16T13:09:01.051Z,35.80
2018-06-16T13:11:29.529Z,35.60
2018-06-16T13:13:58.485Z,35.30
2018-06-16T13:16:27.478Z,35.30
2018-06-16T13:18:56.119Z,35.50
2018-06-16T13:21:24.781Z,35.70
2018-06-16T13:23:53.962Z,34.70
2018-06-16T13:26:22.241Z,35.30
2018-06-16T13:28:50.503Z,35.60
2018-06-16T13:31:18.797Z,35.00
2018-06-16T13:33:47.036Z,34.60
2018-06-16T13:36:15.456Z,34.60
2018-06-16T13:38:45.064Z,35.30
2018-06-16T13:41:13.320Z,34.80
2018-06-16T13:43:41.625Z,35.10
2018-06-16T13:46:09.876Z,35.30
2018-06-16T13:51:06.279Z,34.50
2018-06-16T13:53:34.574Z,32.40
2018-06-16T13:56:03.856Z,31.20
2018-06-16T13:58:32.104Z,29.90
2018-06-16T14:01:00.509Z,28.90
2018-06-16T14:03:28.800Z,28.40
2018-06-16T14:05:57.100Z,28.00
2018-06-16T14:08:25.572Z,27.40
2018-06-16T14:10:53.864Z,26.10
2018-06-16T14:13:22.158Z,25.80
2018-06-16T14:15:50.462Z,26.90
2018-06-16T14:18:18.916Z,27.50
2018-06-16T14:20:47.165Z,28.70
2018-06-16T14:23:15.427Z,28.60
2018-06-16T14:25:43.750Z,28.30
2018-06-16T14:28:11.972Z,28.90
2018-06-16T14:30:40.229Z,29.00
2018-06-16T14:33:08.506Z,30.00
2018-06-16T14:35:36.817Z,31.00
2018-06-16T14:38:05.118Z,31.80
2018-06-16T14:40:33.476Z,32.80
2018-06-16T14:43:01.807Z,33.50
2018-06-16T14:45:30.080Z,34.10
2018-06-16T14:47:58.372Z,34.70
2018-06-16T14:50:26.657Z,34.90
2018-06-16T14:52:54.888Z,34.80
2018-06-16T14:55:23.132Z,34.90
2018-06-16T14:57:51.416Z,34.60
2018-06-16T15:00:19.755Z,31.70
2018-06-16T15:02:48.019Z,29.30
2018-06-16T15:05:16.285Z,28.20
2018-06-16T15:07:44.579Z,27.00
2018-06-16T15:10:12.913Z,26.50
2018-06-16T15:12:41.448Z,25.70
2018-06-16T15:15:09.705Z,26.10
2018-06-16T15:17:38.005Z,27.10
2018-06-16T15:20:06.312Z,28.30
2018-06-16T15:22:34.720Z,29.40
2018-06-16T15:25:03.226Z,30.60
2018-06-16T15:27:31.656Z,31.60
2018-06-16T15:30:00.308Z,32.70
2018-06-16T15:32:28.891Z,33.60
2018-06-16T15:34:57.172Z,34.50
2018-06-16T15:37:25.471Z,35.00
2018-06-16T15:39:54.148Z,35.20
2018-06-16T15:42:22.491Z,35.50
2018-06-16T15:47:20.205Z,34.70
2018-06-16T15:49:49.264Z,35.00
2018-06-16T15:52:19.080Z,35.40
2018-06-16T15:54:47.873Z,36.20
2018-06-16T15:57:16.904Z,36.60
2018-06-16T15:59:46.016Z,37.30
2018-06-16T16:02:15.297Z,37.80
2018-06-16T16:04:44.664Z,38.10
2018-06-16T16:07:13.985Z,38.70
2018-06-16T16:09:43.202Z,38.70
2018-06-16T16:12:11.949Z,38.80
2018-06-16T16:14:41.018Z,39.70
2018-06-16T16:17:10.843Z,39.50
2018-06-16T16:19:40.455Z,39.90
2018-06-16T16:22:09.776Z,40.40
2018-06-16T16:24:38.945Z,40.50
2018-06-16T16:27:07.961Z,40.80
2018-06-16T16:29:36.611Z,41.40
2018-06-16T16:32:06.161Z,42.00
2018-06-16T16:34:35.023Z,42.20
2018-06-16T16:37:04.802Z,42.40
2018-06-16T16:39:33.930Z,42.70
2018-06-16T16:42:02.980Z,43.20
2018-06-16T16:44:31.985Z,43.40
2018-06-16T16:47:00.789Z,43.60
2018-06-16T16:49:30.059Z,43.90
2018-06-16T16:51:58.996Z,44.20
2018-06-16T16:54:27.927Z,44.40
2018-06-16T16:56:56.919Z,44.30
2018-06-16T16:59:25.980Z,44.40
2018-06-16T17:01:55.055Z,44.50
2018-06-16T17:04:24.128Z,44.50
2018-06-16T17:06:53.176Z,44.60
2018-06-16T17:09:22.058Z,44.70
2018-06-16T17:11:50.633Z,44.70
2018-06-16T17:16:47.268Z,44.70
2018-06-16T17:19:16.630Z,44.90
2018-06-16T17:21:45.191Z,45.30
2018-06-16T17:24:13.755Z,45.80
2018-06-16T17:26:42.332Z,46.30
2018-06-16T17:29:10.928Z,46.50
2018-06-16T17:31:39.411Z,46.70
2018-06-16T17:34:08.390Z,46.70
2018-06-16T17:39:07.240Z,46.70
2018-06-16T17:41:36.350Z,46.80
2018-06-16T17:44:05.562Z,47.00
2018-06-16T17:46:34.332Z,47.20
2018-06-16T17:49:02.889Z,47.30
2018-06-16T17:51:31.547Z,47.40
2018-06-16T17:54:00.351Z,47.30
2018-06-16T17:56:29.027Z,47.30
2018-06-16T17:58:57.437Z,47.40
2018-06-16T18:01:25.729Z,47.40
2018-06-16T18:03:54.032Z,47.40
2018-06-16T18:06:22.346Z,47.40
2018-06-16T18:08:50.923Z,47.50
2018-06-16T18:11:19.421Z,48.10
2018-06-16T18:13:47.980Z,47.50
2018-06-16T18:16:16.781Z,47.50
2018-06-16T18:18:45.479Z,47.60
2018-06-16T18:21:14.090Z,47.80
2018-06-16T18:23:42.335Z,47.90
2018-06-16T18:26:11.585Z,47.90
2018-06-16T18:28:39.939Z,48.00
2018-06-16T18:31:08.673Z,47.80
2018-06-16T18:33:37.078Z,47.90
2018-06-16T18:36:06.213Z,48.10
2018-06-16T18:38:34.907Z,48.20
2018-06-16T18:41:03.573Z,48.40
2018-06-16T18:43:32.114Z,48.30
2018-06-16T18:46:00.363Z,48.30
2018-06-16T18:48:29.492Z,48.30
2018-06-16T18:50:58.314Z,48.40
2018-06-16T18:53:27.397Z,48.40
2018-06-16T18:55:56.157Z,48.50
2018-06-16T19:00:53.397Z,48.30
2018-06-16T19:03:21.853Z,48.30
2018-06-16T19:05:50.385Z,48.30
2018-06-16T19:08:18.860Z,48.20
2018-06-16T19:10:47.258Z,48.30
2018-06-16T19:13:15.483Z,48.50
2018-06-16T19:15:43.780Z,48.60
2018-06-16T19:18:12.225Z,48.90
2018-06-16T19:20:40.506Z,49.00
2018-06-16T19:23:09.079Z,49.30
2018-06-16T19:25:37.318Z,49.60
2018-06-16T19:28:05.602Z,49.80
2018-06-16T19:33:01.880Z,50.30
2018-06-16T19:35:30.130Z,50.40
2018-06-16T19:37:58.471Z,50.70
2018-06-16T19:40:26.936Z,50.90
2018-06-16T19:42:55.213Z,51.10
2018-06-16T19:45:23.486Z,51.80
2018-06-16T19:47:51.744Z,51.20
2018-06-16T19:50:20.013Z,51.10
2018-06-16T19:52:48.297Z,51.10
2018-06-16T19:55:16.600Z,51.20
2018-06-16T19:57:44.836Z,51.20
2018-06-16T20:00:13.171Z,51.30
2018-06-16T20:02:41.430Z,51.20
2018-06-16T20:05:09.692Z,51.20
2018-06-16T20:07:37.956Z,51.10
2018-06-16T20:10:06.312Z,51.00
2018-06-16T20:15:03.412Z,51.00
2018-06-16T20:17:31.717Z,51.00
2018-06-16T20:20:00.005Z,51.00
2018-06-16T20:22:28.304Z,51.00
2018-06-16T20:24:56.568Z,50.80
2018-06-16T20:27:24.834Z,50.90
2018-06-16T20:29:53.156Z,50.90
2018-06-16T20:32:21.469Z,50.80
2018-06-16T20:37:17.692Z,51.00
2018-06-16T20:39:46.004Z,51.00
2018-06-16T20:42:14.260Z,50.90
2018-06-16T20:44:42.517Z,50.90
2018-06-16T20:47:10.798Z,51.00
2018-06-16T20:49:39.312Z,50.90
2018-06-16T20:52:07.561Z,51.10
2018-06-16T20:54:35.833Z,51.20
2018-06-16T20:57:04.105Z,51.20
2018-06-16T20:59:32.343Z,51.40
2018-06-16T21:02:00.645Z,51.50
2018-06-16T21:04:28.893Z,51.50
2018-06-16T21:06:57.149Z,51.40
2018-06-16T21:09:25.516Z,51.50
2018-06-16T21:11:53.752Z,51.40
2018-06-16T21:14:22.045Z,51.30
2018-06-16T21:16:50.309Z,51.40
2018-06-16T21:19:18.581Z,51.50
2018-06-16T21:21:46.871Z,51.40
2018-06-16T21:24:15.109Z,51.30
2018-06-16T21:26:43.375Z,51.60
2018-06-16T21:29:11.658Z,51.90
2018-06-16T21:31:39.929Z,52.10
2018-06-16T21:34:08.404Z,52.30
2018-06-16T21:39:06.591Z,52.80
2018-06-16T21:41:34.911Z,53.00
2018-06-16T21:44:03.285Z,53.10
2018-06-16T21:46:31.506Z,53.30
2018-06-16T21:48:59.893Z,53.50
2018-06-16T21:51:28.197Z,53.90
2018-06-16T21:53:56.469Z,54.00
2018-06-16T21:56:24.735Z,54.10
2018-06-16T21:58:53.204Z,54.40
2018-06-16T22:03:49.437Z,54.80
2018-06-16T22:06:17.701Z,54.80
2018-06-16T22:08:45.978Z,55.00
2018-06-16T22:11:14.245Z,55.20
2018-06-16T22:13:42.546Z,55.20
2018-06-16T22:16:10.805Z,55.20
2018-06-16T22:18:39.064Z,55.20
2018-06-16T22:21:07.362Z,55.20
2018-06-16T22:23:35.633Z,55.20
2018-06-16T22:26:04.477Z,55.10
2018-06-16T22:28:32.753Z,55.10
2018-06-16T22:31:01.112Z,55.00
2018-06-16T22:33:29.404Z,54.70
2018-06-16T22:35:57.648Z,54.70
2018-06-16T22:38:25.946Z,54.70
2018-06-16T22:40:54.224Z,54.90
2018-06-16T22:43:22.466Z,55.10
2018-06-16T22:45:50.806Z,55.10
2018-06-16T22:48:19.035Z,55.20
2018-06-16T22:50:47.351Z,55.20
2018-06-16T22:53:15.660Z,55.30
2018-06-16T22:55:43.928Z,55.30
2018-06-16T22:58:12.248Z,55.40
2018-06-16T23:00:40.696Z,56.00
2018-06-16T23:03:08.956Z,55.70
2018-06-16T23:05:37.250Z,55.80
2018-06-16T23:08:05.549Z,55.90
2018-06-16T23:13:01.889Z,56.20
2018-06-16T23:15:30.224Z,56.50
2018-06-16T23:20:26.477Z,56.90
2018-06-16T23:22:54.787Z,57.10
2018-06-16T23:25:25.246Z,57.30
2018-06-16T23:27:53.487Z,57.50
2018-06-16T23:30:22.146Z,57.70
2018-06-16T23:35:18.401Z,57.90
2018-06-16T23:37:46.649Z,58.00
2018-06-16T23:40:14.943Z,58.20
2018-06-16T23:42:43.200Z,58.20
2018-06-16T23:45:11.470Z,58.30
2018-06-16T23:47:39.724Z,58.40
2018-06-16T23:50:08.240Z,58.40
2018-06-16T23:52:36.509Z,58.40
2018-06-16T23:55:04.779Z,58.50
2018-06-16T23:57:33.059Z,58.50
